sensor_id;sensor_type;location;lat;lon;timestamp;pressure;altitude;pressure_sealevel;temperature;humidity
79006;BME280;69202;45.498;-73.582;2023-05-10T00:00:54;101063.50;;;19.06;18.78
79006;BME280;69202;45.498;-73.582;2023-05-10T00:03:20;101085.78;;;19.09;19.31
79006;BME280;69202;45.498;-73.582;2023-05-10T00:05:46;101021.53;;;18.60;19.97
79006;BME280;69202;45.498;-73.582;2023-05-10T00:08:12;101060.09;;;18.70;19.81
79006;BME280;69202;45.498;-73.582;2023-05-10T00:10:38;101053.47;;;18.66;19.97
79006;BME280;69202;45.498;-73.582;2023-05-10T00:13:03;101003.34;;;18.25;20.46
79006;BME280;69202;45.498;-73.582;2023-05-10T00:15:29;101092.72;;;18.71;20.72
79006;BME280;69202;45.498;-73.582;2023-05-10T00:18:00;101020.22;;;18.22;20.72
79006;BME280;69202;45.498;-73.582;2023-05-10T00:20:26;101017.19;;;18.07;20.79
79006;BME280;69202;45.498;-73.582;2023-05-10T00:22:52;100987.84;;;17.79;21.13
79006;BME280;69202;45.498;-73.582;2023-05-10T00:25:18;101000.84;;;17.72;21.04
79006;BME280;69202;45.498;-73.582;2023-05-10T00:27:43;101107.13;;;18.27;21.39
79006;BME280;69202;45.498;-73.582;2023-05-10T00:30:10;101099.38;;;18.12;21.32
79006;BME280;69202;45.498;-73.582;2023-05-10T00:32:35;100998.66;;;17.39;21.32
79006;BME280;69202;45.498;-73.582;2023-05-10T00:35:01;101121.19;;;18.07;21.30
79006;BME280;69202;45.498;-73.582;2023-05-10T00:37:27;101102.75;;;17.91;21.09
79006;BME280;69202;45.498;-73.582;2023-05-10T00:39:53;101076.94;;;17.75;21.65
79006;BME280;69202;45.498;-73.582;2023-05-10T00:42:19;101117.03;;;17.93;21.69
79006;BME280;69202;45.498;-73.582;2023-05-10T00:44:45;101113.56;;;17.85;21.76
79006;BME280;69202;45.498;-73.582;2023-05-10T00:47:12;101078.34;;;17.54;22.14
79006;BME280;69202;45.498;-73.582;2023-05-10T00:49:38;101119.06;;;17.74;22.08
79006;BME280;69202;45.498;-73.582;2023-05-10T00:52:04;101123.31;;;17.70;22.50
79006;BME280;69202;45.498;-73.582;2023-05-10T00:54:31;101010.41;;;16.92;22.29
79006;BME280;69202;45.498;-73.582;2023-05-10T00:56:57;101086.38;;;17.25;22.00
79006;BME280;69202;45.498;-73.582;2023-05-10T00:59:35;101138.81;;;17.46;22.32
79006;BME280;69202;45.498;-73.582;2023-05-10T01:02:02;101097.28;;;17.14;22.48
79006;BME280;69202;45.498;-73.582;2023-05-10T01:04:28;101138.66;;;17.29;23.10
79006;BME280;69202;45.498;-73.582;2023-05-10T01:06:54;101095.31;;;16.91;22.87
79006;BME280;69202;45.498;-73.582;2023-05-10T01:09:21;101143.00;;;17.18;22.80
79006;BME280;69202;45.498;-73.582;2023-05-10T01:11:48;101145.38;;;17.15;23.37
79006;BME280;69202;45.498;-73.582;2023-05-10T01:14:16;101148.13;;;17.15;23.28
79006;BME280;69202;45.498;-73.582;2023-05-10T01:16:44;101097.25;;;16.72;23.31
79006;BME280;69202;45.498;-73.582;2023-05-10T01:19:21;101097.28;;;16.65;23.85
79006;BME280;69202;45.498;-73.582;2023-05-10T01:21:53;101153.84;;;16.95;23.61
79006;BME280;69202;45.498;-73.582;2023-05-10T01:39:25;101172.16;;;16.58;24.45
79006;BME280;69202;45.498;-73.582;2023-05-10T01:47:38;101160.94;;;16.48;23.10
79006;BME280;69202;45.498;-73.582;2023-05-10T01:50:15;101145.69;;;16.40;23.00
79006;BME280;69202;45.498;-73.582;2023-05-10T01:52:44;101162.22;;;16.63;23.44
79006;BME280;69202;45.498;-73.582;2023-05-10T01:55:15;101180.47;;;16.69;23.62
79006;BME280;69202;45.498;-73.582;2023-05-10T01:57:43;101075.13;;;16.07;23.52
79006;BME280;69202;45.498;-73.582;2023-05-10T02:00:11;101173.97;;;16.64;23.05
79006;BME280;69202;45.498;-73.582;2023-05-10T02:02:40;101170.19;;;16.65;22.50
79006;BME280;69202;45.498;-73.582;2023-05-10T02:05:08;101129.78;;;16.37;22.89
79006;BME280;69202;45.498;-73.582;2023-05-10T02:07:37;101100.91;;;16.29;23.44
79006;BME280;69202;45.498;-73.582;2023-05-10T02:10:07;101111.13;;;16.34;23.94
79006;BME280;69202;45.498;-73.582;2023-05-10T02:12:41;101175.03;;;16.63;24.49
79006;BME280;69202;45.498;-73.582;2023-05-10T02:15:08;101095.50;;;16.04;24.32
79006;BME280;69202;45.498;-73.582;2023-05-10T02:17:35;101184.69;;;16.47;24.23
79006;BME280;69202;45.498;-73.582;2023-05-10T02:20:04;101093.09;;;15.96;24.14
79006;BME280;69202;45.498;-73.582;2023-05-10T02:22:31;101087.63;;;15.96;24.48
79006;BME280;69202;45.498;-73.582;2023-05-10T02:24:59;101167.66;;;16.45;24.75
79006;BME280;69202;45.498;-73.582;2023-05-10T02:27:27;101168.75;;;16.44;24.55
79006;BME280;69202;45.498;-73.582;2023-05-10T02:29:54;101126.66;;;16.15;25.21
79006;BME280;69202;45.498;-73.582;2023-05-10T02:32:22;101176.69;;;16.45;25.08
79006;BME280;69202;45.498;-73.582;2023-05-10T02:34:48;101142.06;;;16.28;25.69
79006;BME280;69202;45.498;-73.582;2023-05-10T02:37:19;101175.94;;;16.38;25.28
79006;BME280;69202;45.498;-73.582;2023-05-10T02:39:47;101115.50;;;15.98;24.77
79006;BME280;69202;45.498;-73.582;2023-05-10T02:42:19;101182.06;;;16.34;24.63
79006;BME280;69202;45.498;-73.582;2023-05-10T02:44:47;101137.31;;;15.98;24.64
79006;BME280;69202;45.498;-73.582;2023-05-10T02:47:15;101139.03;;;15.93;24.93
79006;BME280;69202;45.498;-73.582;2023-05-10T02:49:41;101129.44;;;15.90;24.71
79006;BME280;69202;45.498;-73.582;2023-05-10T02:52:07;101093.88;;;15.53;25.00
79006;BME280;69202;45.498;-73.582;2023-05-10T02:54:46;101130.94;;;15.86;24.41
79006;BME280;69202;45.498;-73.582;2023-05-10T02:57:17;101185.94;;;16.26;23.58
79006;BME280;69202;45.498;-73.582;2023-05-10T02:59:47;101193.31;;;16.26;23.56
79006;BME280;69202;45.498;-73.582;2023-05-10T03:02:13;101155.31;;;16.06;23.07
79006;BME280;69202;45.498;-73.582;2023-05-10T03:04:39;101159.94;;;16.05;22.82
79006;BME280;69202;45.498;-73.582;2023-05-10T03:07:04;101076.69;;;15.53;22.48
79006;BME280;69202;45.498;-73.582;2023-05-10T03:09:31;101182.91;;;16.16;22.83
79006;BME280;69202;45.498;-73.582;2023-05-10T03:12:20;101195.81;;;16.27;22.29
79006;BME280;69202;45.498;-73.582;2023-05-10T03:17:59;101149.81;;;15.87;22.50
79006;BME280;69202;45.498;-73.582;2023-05-10T03:20:34;101190.69;;;16.12;22.00
79006;BME280;69202;45.498;-73.582;2023-05-10T03:23:15;101155.63;;;15.91;22.11
79006;BME280;69202;45.498;-73.582;2023-05-10T03:25:46;101202.44;;;16.13;21.94
79006;BME280;69202;45.498;-73.582;2023-05-10T03:28:14;101203.13;;;16.08;21.98
79006;BME280;69202;45.498;-73.582;2023-05-10T03:30:42;101169.94;;;15.86;22.23
79006;BME280;69202;45.498;-73.582;2023-05-10T03:33:08;101202.88;;;16.10;22.08
79006;BME280;69202;45.498;-73.582;2023-05-10T03:35:34;101189.75;;;16.00;22.37
79006;BME280;69202;45.498;-73.582;2023-05-10T03:38:01;101119.66;;;15.51;22.15
79006;BME280;69202;45.498;-73.582;2023-05-10T03:40:27;101166.47;;;15.73;22.16
79006;BME280;69202;45.498;-73.582;2023-05-10T03:42:58;101222.88;;;16.04;22.36
79006;BME280;69202;45.498;-73.582;2023-05-10T03:45:25;101220.59;;;16.01;21.91
79006;BME280;69202;45.498;-73.582;2023-05-10T03:47:50;101222.53;;;15.94;21.87
79006;BME280;69202;45.498;-73.582;2023-05-10T03:50:16;101153.19;;;15.51;22.33
79006;BME280;69202;45.498;-73.582;2023-05-10T03:52:43;101198.44;;;15.66;21.73
79006;BME280;69202;45.498;-73.582;2023-05-10T03:55:10;101229.69;;;15.95;22.04
79006;BME280;69202;45.498;-73.582;2023-05-10T03:57:36;101239.56;;;15.89;22.40
79006;BME280;69202;45.498;-73.582;2023-05-10T04:00:03;101192.38;;;15.57;21.94
79006;BME280;69202;45.498;-73.582;2023-05-10T04:02:29;101205.94;;;15.70;22.31
79006;BME280;69202;45.498;-73.582;2023-05-10T04:04:56;101112.84;;;15.10;21.96
79006;BME280;69202;45.498;-73.582;2023-05-10T04:07:22;101151.47;;;15.32;22.06
79006;BME280;69202;45.498;-73.582;2023-05-10T04:09:47;101228.78;;;15.76;21.58
79006;BME280;69202;45.498;-73.582;2023-05-10T04:12:13;101212.63;;;15.74;21.28
79006;BME280;69202;45.498;-73.582;2023-05-10T04:14:39;101159.44;;;15.34;21.29
79006;BME280;69202;45.498;-73.582;2023-05-10T04:17:06;101197.59;;;15.58;21.12
79006;BME280;69202;45.498;-73.582;2023-05-10T04:19:32;101242.78;;;15.79;20.52
79006;BME280;69202;45.498;-73.582;2023-05-10T04:21:58;101221.06;;;15.66;20.85
79006;BME280;69202;45.498;-73.582;2023-05-10T04:24:24;101245.13;;;15.76;20.71
79006;BME280;69202;45.498;-73.582;2023-05-10T04:26:50;101245.00;;;15.64;20.73
79006;BME280;69202;45.498;-73.582;2023-05-10T04:29:16;101195.63;;;15.41;20.48
79006;BME280;69202;45.498;-73.582;2023-05-10T04:31:42;101254.41;;;15.68;20.81
79006;BME280;69202;45.498;-73.582;2023-05-10T04:34:08;101253.19;;;15.64;20.87
79006;BME280;69202;45.498;-73.582;2023-05-10T04:36:34;101198.22;;;15.29;20.85
79006;BME280;69202;45.498;-73.582;2023-05-10T04:39:03;101143.09;;;14.95;21.16
79006;BME280;69202;45.498;-73.582;2023-05-10T04:41:29;101195.56;;;15.22;20.89
79006;BME280;69202;45.498;-73.582;2023-05-10T04:43:55;101248.66;;;15.45;20.89
79006;BME280;69202;45.498;-73.582;2023-05-10T04:46:21;101272.94;;;15.53;20.79
79006;BME280;69202;45.498;-73.582;2023-05-10T04:48:47;101192.47;;;15.12;20.87
79006;BME280;69202;45.498;-73.582;2023-05-10T04:51:13;101216.69;;;15.27;21.11
79006;BME280;69202;45.498;-73.582;2023-05-10T04:53:39;101230.06;;;15.28;21.35
79006;BME280;69202;45.498;-73.582;2023-05-10T04:56:05;101186.84;;;15.00;21.46
79006;BME280;69202;45.498;-73.582;2023-05-10T04:58:32;101208.16;;;15.10;21.47
79006;BME280;69202;45.498;-73.582;2023-05-10T05:01:05;101260.03;;;15.35;21.39
79006;BME280;69202;45.498;-73.582;2023-05-10T05:03:32;101252.06;;;15.34;21.92
79006;BME280;69202;45.498;-73.582;2023-05-10T05:05:58;101119.00;;;14.54;22.16
79006;BME280;69202;45.498;-73.582;2023-05-10T05:08:24;101225.31;;;15.17;22.04
79006;BME280;69202;45.498;-73.582;2023-05-10T05:10:50;101173.75;;;14.84;22.24
79006;BME280;69202;45.498;-73.582;2023-05-10T05:13:16;101255.44;;;15.29;22.13
79006;BME280;69202;45.498;-73.582;2023-05-10T05:15:42;101232.06;;;15.08;21.83
79006;BME280;69202;45.498;-73.582;2023-05-10T05:18:08;101127.81;;;14.43;21.82
79006;BME280;69202;45.498;-73.582;2023-05-10T05:20:34;101201.34;;;14.88;21.90
79006;BME280;69202;45.498;-73.582;2023-05-10T05:23:00;101197.63;;;14.82;21.42
79006;BME280;69202;45.498;-73.582;2023-05-10T05:25:26;101176.09;;;14.74;22.02
79006;BME280;69202;45.498;-73.582;2023-05-10T05:27:52;101202.16;;;14.95;21.91
79006;BME280;69202;45.498;-73.582;2023-05-10T05:30:18;101248.56;;;15.20;21.67
79006;BME280;69202;45.498;-73.582;2023-05-10T05:32:44;101140.78;;;14.54;21.68
79006;BME280;69202;45.498;-73.582;2023-05-10T05:35:10;101212.66;;;14.91;21.95
79006;BME280;69202;45.498;-73.582;2023-05-10T05:37:36;101256.63;;;15.01;21.58
79006;BME280;69202;45.498;-73.582;2023-05-10T05:40:03;101146.03;;;14.49;21.57
79006;BME280;69202;45.498;-73.582;2023-05-10T05:42:30;101204.31;;;14.86;21.47
79006;BME280;69202;45.498;-73.582;2023-05-10T05:44:56;101155.03;;;14.43;21.42
79006;BME280;69202;45.498;-73.582;2023-05-10T05:47:22;101224.63;;;14.90;21.77
79006;BME280;69202;45.498;-73.582;2023-05-10T05:49:48;101118.22;;;14.34;22.02
79006;BME280;69202;45.498;-73.582;2023-05-10T05:52:14;101165.25;;;14.61;21.71
79006;BME280;69202;45.498;-73.582;2023-05-10T05:54:40;101230.00;;;15.04;22.26
79006;BME280;69202;45.498;-73.582;2023-05-10T05:57:06;101213.06;;;14.95;21.76
79006;BME280;69202;45.498;-73.582;2023-05-10T05:59:32;101230.84;;;15.04;21.67
79006;BME280;69202;45.498;-73.582;2023-05-10T06:01:59;101190.09;;;14.78;21.81
79006;BME280;69202;45.498;-73.582;2023-05-10T06:04:25;101208.47;;;14.89;21.57
79006;BME280;69202;45.498;-73.582;2023-05-10T06:06:51;101211.09;;;14.64;21.25
79006;BME280;69202;45.498;-73.582;2023-05-10T06:09:17;101230.91;;;14.91;21.31
79006;BME280;69202;45.498;-73.582;2023-05-10T06:11:43;101108.84;;;14.16;21.52
79006;BME280;69202;45.498;-73.582;2023-05-10T06:14:09;101223.34;;;14.86;21.63
79006;BME280;69202;45.498;-73.582;2023-05-10T06:16:35;101121.38;;;14.24;21.84
79006;BME280;69202;45.498;-73.582;2023-05-10T06:19:02;101206.25;;;14.66;22.10
79006;BME280;69202;45.498;-73.582;2023-05-10T06:21:28;101170.94;;;14.46;22.08
79006;BME280;69202;45.498;-73.582;2023-05-10T06:23:54;101144.41;;;14.22;22.09
79006;BME280;69202;45.498;-73.582;2023-05-10T06:26:20;101185.81;;;14.50;22.21
79006;BME280;69202;45.498;-73.582;2023-05-10T06:28:46;101180.59;;;14.49;21.94
79006;BME280;69202;45.498;-73.582;2023-05-10T06:31:12;101236.16;;;14.79;21.97
79006;BME280;69202;45.498;-73.582;2023-05-10T06:33:38;101197.91;;;14.61;22.10
79006;BME280;69202;45.498;-73.582;2023-05-10T06:36:04;101232.84;;;14.70;22.14
79006;BME280;69202;45.498;-73.582;2023-05-10T06:38:30;101228.84;;;14.73;22.21
79006;BME280;69202;45.498;-73.582;2023-05-10T06:40:56;101227.59;;;14.69;21.85
79006;BME280;69202;45.498;-73.582;2023-05-10T06:43:22;101211.25;;;14.69;22.20
79006;BME280;69202;45.498;-73.582;2023-05-10T06:45:48;101229.47;;;14.75;22.31
79006;BME280;69202;45.498;-73.582;2023-05-10T06:48:14;101141.06;;;14.20;22.85
79006;BME280;69202;45.498;-73.582;2023-05-10T06:50:40;101236.81;;;14.75;22.91
79006;BME280;69202;45.498;-73.582;2023-05-10T06:53:06;101122.88;;;14.13;23.15
79006;BME280;69202;45.498;-73.582;2023-05-10T06:55:32;101159.22;;;14.32;23.10
79006;BME280;69202;45.498;-73.582;2023-05-10T06:57:58;101094.09;;;13.86;23.63
79006;BME280;69202;45.498;-73.582;2023-05-10T07:00:23;101177.63;;;14.37;22.96
79006;BME280;69202;45.498;-73.582;2023-05-10T07:02:49;101217.38;;;14.58;22.93
79006;BME280;69202;45.498;-73.582;2023-05-10T07:05:16;101204.81;;;14.43;23.11
79006;BME280;69202;45.498;-73.582;2023-05-10T07:07:42;101256.47;;;14.77;22.81
79006;BME280;69202;45.498;-73.582;2023-05-10T07:10:08;101224.91;;;14.62;22.73
79006;BME280;69202;45.498;-73.582;2023-05-10T07:12:34;101243.75;;;14.70;22.97
79006;BME280;69202;45.498;-73.582;2023-05-10T07:15:00;101212.75;;;14.58;22.93
79006;BME280;69202;45.498;-73.582;2023-05-10T07:17:26;101131.03;;;14.13;22.81
79006;BME280;69202;45.498;-73.582;2023-05-10T07:19:52;101155.25;;;14.35;23.05
79006;BME280;69202;45.498;-73.582;2023-05-10T07:22:18;101255.78;;;14.94;23.32
79006;BME280;69202;45.498;-73.582;2023-05-10T07:24:45;101239.06;;;14.84;23.81
79006;BME280;69202;45.498;-73.582;2023-05-10T07:27:11;101245.16;;;14.80;24.70
79006;BME280;69202;45.498;-73.582;2023-05-10T07:29:38;101268.19;;;14.90;25.61
79006;BME280;69202;45.498;-73.582;2023-05-10T07:32:05;101203.16;;;14.36;26.30
79006;BME280;69202;45.498;-73.582;2023-05-10T07:34:31;101273.63;;;14.84;27.13
79006;BME280;69202;45.498;-73.582;2023-05-10T07:37:01;101210.91;;;14.39;28.58
79006;BME280;69202;45.498;-73.582;2023-05-10T07:39:27;101278.47;;;14.75;28.89
79006;BME280;69202;45.498;-73.582;2023-05-10T07:41:54;101223.25;;;14.35;29.28
79006;BME280;69202;45.498;-73.582;2023-05-10T07:44:20;101244.41;;;14.46;29.34
79006;BME280;69202;45.498;-73.582;2023-05-10T07:46:47;101269.28;;;14.63;29.63
79006;BME280;69202;45.498;-73.582;2023-05-10T07:49:14;101243.97;;;14.42;29.90
79006;BME280;69202;45.498;-73.582;2023-05-10T07:51:40;101251.50;;;14.47;30.25
79006;BME280;69202;45.498;-73.582;2023-05-10T07:54:06;101251.50;;;14.40;30.38
79006;BME280;69202;45.498;-73.582;2023-05-10T07:56:32;101169.75;;;14.02;30.36
79006;BME280;69202;45.498;-73.582;2023-05-10T07:58:59;101219.50;;;14.29;30.23
79006;BME280;69202;45.498;-73.582;2023-05-10T08:01:26;101255.06;;;14.54;30.42
79006;BME280;69202;45.498;-73.582;2023-05-10T08:03:52;101175.41;;;13.94;30.98
79006;BME280;69202;45.498;-73.582;2023-05-10T08:06:19;101225.56;;;14.31;31.93
79006;BME280;69202;45.498;-73.582;2023-05-10T08:08:47;101234.56;;;14.38;31.66
79006;BME280;69202;45.498;-73.582;2023-05-10T08:11:18;101130.47;;;13.78;32.08
79006;BME280;69202;45.498;-73.582;2023-05-10T08:13:48;101178.94;;;14.01;32.44
79006;BME280;69202;45.498;-73.582;2023-05-10T08:16:14;101213.22;;;14.22;33.08
79006;BME280;69202;45.498;-73.582;2023-05-10T08:18:41;101243.34;;;14.34;33.60
79006;BME280;69202;45.498;-73.582;2023-05-10T08:21:07;101212.41;;;14.02;33.39
79006;BME280;69202;45.498;-73.582;2023-05-10T08:23:35;101168.72;;;13.70;34.01
79006;BME280;69202;45.498;-73.582;2023-05-10T08:26:01;101252.78;;;14.18;34.12
79006;BME280;69202;45.498;-73.582;2023-05-10T08:28:27;101119.16;;;13.42;34.64
79006;BME280;69202;45.498;-73.582;2023-05-10T08:30:53;101194.66;;;13.86;35.67
79006;BME280;69202;45.498;-73.582;2023-05-10T08:33:19;101238.97;;;14.13;35.91
79006;BME280;69202;45.498;-73.582;2023-05-10T08:35:45;101179.38;;;13.72;36.20
79006;BME280;69202;45.498;-73.582;2023-05-10T08:38:11;101260.13;;;14.18;36.70
79006;BME280;69202;45.498;-73.582;2023-05-10T08:40:41;101255.69;;;14.16;36.72
79006;BME280;69202;45.498;-73.582;2023-05-10T08:43:12;101250.25;;;14.16;37.79
79006;BME280;69202;45.498;-73.582;2023-05-10T08:45:42;101235.41;;;14.06;37.14
79006;BME280;69202;45.498;-73.582;2023-05-10T08:48:09;101253.41;;;14.13;36.91
79006;BME280;69202;45.498;-73.582;2023-05-10T08:50:37;101254.66;;;14.11;36.32
79006;BME280;69202;45.498;-73.582;2023-05-10T08:53:09;101223.28;;;13.89;36.25
79006;BME280;69202;45.498;-73.582;2023-05-10T08:55:36;101199.25;;;13.66;35.97
79006;BME280;69202;45.498;-73.582;2023-05-10T08:58:06;101255.09;;;14.01;35.81
79006;BME280;69202;45.498;-73.582;2023-05-10T09:00:32;101212.59;;;13.74;35.04
79006;BME280;69202;45.498;-73.582;2023-05-10T09:02:59;101251.94;;;13.91;36.92
79006;BME280;69202;45.498;-73.582;2023-05-10T09:05:25;101212.81;;;13.72;36.77
79006;BME280;69202;45.498;-73.582;2023-05-10T09:07:51;101257.19;;;13.99;37.65
79006;BME280;69202;45.498;-73.582;2023-05-10T09:10:18;101180.63;;;13.63;37.50
79006;BME280;69202;45.498;-73.582;2023-05-10T09:12:45;101226.63;;;13.91;37.03
79006;BME280;69202;45.498;-73.582;2023-05-10T09:15:14;101147.56;;;13.33;38.75
79006;BME280;69202;45.498;-73.582;2023-05-10T09:17:42;101185.63;;;13.46;38.53
79006;BME280;69202;45.498;-73.582;2023-05-10T09:20:08;101205.47;;;13.53;38.13
79006;BME280;69202;45.498;-73.582;2023-05-10T09:22:34;101257.13;;;13.73;37.56
79006;BME280;69202;45.498;-73.582;2023-05-10T09:25:11;101254.00;;;13.82;37.79
79006;BME280;69202;45.498;-73.582;2023-05-10T09:27:39;101256.31;;;13.79;37.67
79006;BME280;69202;45.498;-73.582;2023-05-10T09:30:07;101265.94;;;13.81;36.40
79006;BME280;69202;45.498;-73.582;2023-05-10T09:32:40;101266.16;;;13.80;36.34
79006;BME280;69202;45.498;-73.582;2023-05-10T09:35:17;101271.34;;;13.75;36.55
79006;BME280;69202;45.498;-73.582;2023-05-10T09:37:46;101273.44;;;13.73;36.87
79006;BME280;69202;45.498;-73.582;2023-05-10T09:40:15;101277.00;;;13.67;37.42
79006;BME280;69202;45.498;-73.582;2023-05-10T09:45:23;101240.50;;;13.21;37.42
79006;BME280;69202;45.498;-73.582;2023-05-10T09:47:50;101234.19;;;13.14;37.66
79006;BME280;69202;45.498;-73.582;2023-05-10T09:50:16;101279.44;;;13.42;37.27
79006;BME280;69202;45.498;-73.582;2023-05-10T09:52:53;101231.25;;;13.09;37.57
79006;BME280;69202;45.498;-73.582;2023-05-10T09:55:22;101257.19;;;13.18;37.87
79006;BME280;69202;45.498;-73.582;2023-05-10T09:57:48;101277.34;;;13.37;36.93
79006;BME280;69202;45.498;-73.582;2023-05-10T10:00:18;101275.47;;;13.38;37.11
79006;BME280;69202;45.498;-73.582;2023-05-10T10:02:54;101219.09;;;12.98;37.50
79006;BME280;69202;45.498;-73.582;2023-05-10T10:05:20;101284.84;;;13.35;37.48
79006;BME280;69202;45.498;-73.582;2023-05-10T10:07:46;101241.06;;;13.04;37.51
79006;BME280;69202;45.498;-73.582;2023-05-10T10:10:14;101302.59;;;13.31;38.38
79006;BME280;69202;45.498;-73.582;2023-05-10T10:12:41;101274.34;;;13.19;38.69
79006;BME280;69202;45.498;-73.582;2023-05-10T10:15:08;101206.44;;;12.71;39.52
79006;BME280;69202;45.498;-73.582;2023-05-10T10:17:36;101253.59;;;13.05;39.04
79006;BME280;69202;45.498;-73.582;2023-05-10T10:20:04;101201.88;;;12.71;39.23
79006;BME280;69202;45.498;-73.582;2023-05-10T10:22:29;101291.00;;;13.16;39.31
79006;BME280;69202;45.498;-73.582;2023-05-10T10:24:55;101235.75;;;12.82;38.78
79006;BME280;69202;45.498;-73.582;2023-05-10T10:27:34;101309.66;;;13.19;38.77
79006;BME280;69202;45.498;-73.582;2023-05-10T10:30:12;101303.56;;;13.17;38.85
79006;BME280;69202;45.498;-73.582;2023-05-10T10:32:51;101310.66;;;13.18;38.50
79006;BME280;69202;45.498;-73.582;2023-05-10T10:35:21;101263.53;;;12.91;39.07
79006;BME280;69202;45.498;-73.582;2023-05-10T10:37:50;101296.66;;;13.14;38.75
79006;BME280;69202;45.498;-73.582;2023-05-10T10:40:27;101297.66;;;13.07;39.02
79006;BME280;69202;45.498;-73.582;2023-05-10T10:42:54;101263.06;;;12.81;38.73
79006;BME280;69202;45.498;-73.582;2023-05-10T10:45:20;101297.41;;;13.01;38.61
79006;BME280;69202;45.498;-73.582;2023-05-10T10:47:46;101246.97;;;12.73;38.68
79006;BME280;69202;45.498;-73.582;2023-05-10T10:50:12;101317.13;;;13.17;37.43
79006;BME280;69202;45.498;-73.582;2023-05-10T10:52:45;101287.38;;;12.95;38.12
79006;BME280;69202;45.498;-73.582;2023-05-10T10:55:13;101320.94;;;13.22;38.00
79006;BME280;69202;45.498;-73.582;2023-05-10T10:57:53;101320.50;;;13.19;38.42
79006;BME280;69202;45.498;-73.582;2023-05-10T11:00:33;101323.47;;;13.24;38.05
79006;BME280;69202;45.498;-73.582;2023-05-10T11:03:08;101312.28;;;13.12;38.05
79006;BME280;69202;45.498;-73.582;2023-05-10T11:05:41;101332.47;;;13.31;37.89
79006;BME280;69202;45.498;-73.582;2023-05-10T11:08:17;101347.34;;;13.35;38.12
79006;BME280;69202;45.498;-73.582;2023-05-10T11:13:40;101343.31;;;13.31;38.31
79006;BME280;69202;45.498;-73.582;2023-05-10T11:16:14;101334.13;;;13.32;38.52
79006;BME280;69202;45.498;-73.582;2023-05-10T11:18:41;101320.81;;;13.37;37.96
79006;BME280;69202;45.498;-73.582;2023-05-10T11:21:17;101335.72;;;13.61;37.41
79006;BME280;69202;45.498;-73.582;2023-05-10T11:23:51;101305.38;;;13.44;37.02
79006;BME280;69202;45.498;-73.582;2023-05-10T11:26:18;101343.69;;;13.69;36.41
79006;BME280;69202;45.498;-73.582;2023-05-10T11:28:48;101331.56;;;13.65;36.81
79006;BME280;69202;45.498;-73.582;2023-05-10T11:31:18;101315.88;;;13.67;36.85
79006;BME280;69202;45.498;-73.582;2023-05-10T11:33:50;101308.78;;;13.73;36.77
79006;BME280;69202;45.498;-73.582;2023-05-10T11:36:18;101316.09;;;13.72;37.20
79006;BME280;69202;45.498;-73.582;2023-05-10T11:38:45;101347.50;;;13.95;37.43
79006;BME280;69202;45.498;-73.582;2023-05-10T11:41:12;101339.38;;;14.01;37.23
79006;BME280;69202;45.498;-73.582;2023-05-10T11:43:42;101320.28;;;13.81;37.21
79006;BME280;69202;45.498;-73.582;2023-05-10T11:46:11;101322.19;;;13.94;36.82
79006;BME280;69202;45.498;-73.582;2023-05-10T11:48:41;101346.06;;;14.12;37.09
79006;BME280;69202;45.498;-73.582;2023-05-10T11:51:08;101304.00;;;13.88;36.57
79006;BME280;69202;45.498;-73.582;2023-05-10T11:53:35;101343.16;;;14.13;36.93
79006;BME280;69202;45.498;-73.582;2023-05-10T11:56:08;101349.00;;;14.24;37.01
79006;BME280;69202;45.498;-73.582;2023-05-10T11:58:36;101276.00;;;13.88;36.57
79006;BME280;69202;45.498;-73.582;2023-05-10T12:01:04;101328.50;;;14.34;36.55
79006;BME280;69202;45.498;-73.582;2023-05-10T12:03:31;101293.13;;;13.88;36.49
79006;BME280;69202;45.498;-73.582;2023-05-10T12:05:57;101300.84;;;13.84;36.55
79006;BME280;69202;45.498;-73.582;2023-05-10T12:08:28;101353.63;;;14.43;35.80
79006;BME280;69202;45.498;-73.582;2023-05-10T12:11:15;101299.22;;;14.23;35.30
79006;BME280;69202;45.498;-73.582;2023-05-10T12:13:42;101312.81;;;14.36;34.80
79006;BME280;69202;45.498;-73.582;2023-05-10T12:16:25;101338.78;;;14.65;34.47
79006;BME280;69202;45.498;-73.582;2023-05-10T12:18:56;101328.31;;;14.69;34.42
79006;BME280;69202;45.498;-73.582;2023-05-10T12:21:22;101363.25;;;14.92;33.83
79006;BME280;69202;45.498;-73.582;2023-05-10T12:23:51;101309.66;;;14.79;34.43
79006;BME280;69202;45.498;-73.582;2023-05-10T12:26:18;101327.81;;;15.05;33.70
79006;BME280;69202;45.498;-73.582;2023-05-10T12:28:46;101309.81;;;14.97;33.69
79006;BME280;69202;45.498;-73.582;2023-05-10T12:31:12;101348.50;;;15.26;33.59
79006;BME280;69202;45.498;-73.582;2023-05-10T12:33:43;101344.06;;;15.31;34.06
79006;BME280;69202;45.498;-73.582;2023-05-10T12:36:11;101284.25;;;14.98;34.08
79006;BME280;69202;45.498;-73.582;2023-05-10T12:38:42;101356.56;;;15.52;33.55
79006;BME280;69202;45.498;-73.582;2023-05-10T12:41:14;101308.16;;;15.48;33.26
79006;BME280;69202;45.498;-73.582;2023-05-10T12:43:40;101344.28;;;15.81;33.16
79006;BME280;69202;45.498;-73.582;2023-05-10T12:46:09;101342.59;;;15.87;33.28
79006;BME280;69202;45.498;-73.582;2023-05-10T12:48:37;101279.59;;;15.57;32.95
79006;BME280;69202;45.498;-73.582;2023-05-10T12:51:04;101275.38;;;15.68;32.77
79006;BME280;69202;45.498;-73.582;2023-05-10T12:53:31;101289.75;;;15.81;32.36
79006;BME280;69202;45.498;-73.582;2023-05-10T12:55:57;101266.38;;;15.92;32.78
79006;BME280;69202;45.498;-73.582;2023-05-10T12:58:23;101340.41;;;16.52;32.60
79006;BME280;69202;45.498;-73.582;2023-05-10T13:00:49;101298.22;;;16.30;32.52
79006;BME280;69202;45.498;-73.582;2023-05-10T13:03:17;101335.53;;;16.61;32.43